Time;durP1;ratioP1;P1;durP2;ratioP2;P2;SDS_P1;SDS_P2;PMS_P1;PMS_P2;Temp;Humidity;BMP_temperature;BMP_pressure;BME280_temperature;BME280_humidity;BME280_pressure;Samples;Min_cycle;Max_cycle;Signal;HPM_P1;HPM_P2
2022/09/11 00:00:38;;;;;;;;;;;;;;;16.05;100.00;97797.70;1633186;86;25034;-88
2022/09/11 00:03:06;;;;;;;;;;;;;;;16.06;100.00;97799.36;1631312;86;20279;-88
2022/09/11 00:05:34;;;;;;;;;;;;;;;16.08;100.00;97794.77;1630202;86;24769;-88
2022/09/11 00:08:03;;;;;;;;;;;;;;;16.10;100.00;97799.87;1634588;86;22076;-88
2022/09/11 00:10:36;;;;;;;;;;;;;;;16.08;100.00;97798.73;1637370;86;26799;-87
2022/09/11 00:13:03;;;;;;;;;;;;;;;16.08;100.00;97796.09;1639968;86;25085;-88
2022/09/11 00:15:29;;;;;;;;;;;;;;;16.07;100.00;97794.42;1639163;86;20547;-88
2022/09/11 00:17:55;;;;;;;;;;;;;;;16.07;100.00;97795.75;1638551;86;20855;-88
2022/09/11 00:20:33;;;;;;;;;;;;;;;16.05;100.00;97800.34;1641582;86;21943;-87
2022/09/11 00:23:03;;;;;;;;;;;;;;;16.07;100.00;97802.34;1637246;86;26155;-88
2022/09/11 00:25:27;;;;;;;;;;;;;;;16.07;100.00;97798.39;1654446;85;24557;-87
2022/09/11 00:27:56;;;;;;;;;;;;;;;16.04;100.00;97803.96;1644186;85;20248;-87
2022/09/11 00:30:22;;;;;;;;;;;;;;;16.03;100.00;97797.55;1656373;85;24852;-87
2022/09/11 00:32:51;;;;;;;;;;;;;;;16.03;100.00;97801.01;1647946;85;22012;-87
2022/09/11 00:35:17;;;;;;;;;;;;;;;16.03;100.00;97793.09;1650531;84;26040;-88
2022/09/11 00:37:49;;;;;;;;;;;;;;;16.04;100.00;97798.68;1642846;86;20334;-88
2022/09/11 00:40:16;;;;;;;;;;;;;;;16.05;100.00;97791.11;1637732;86;20153;-87
2022/09/11 00:42:42;;;;;;;;;;;;;;;16.06;100.00;97795.41;1619332;86;23705;-87
2022/09/11 00:45:10;;;;;;;;;;;;;;;16.07;100.00;97801.03;1645469;85;22588;-88
2022/09/11 00:47:42;;;;;;;;;;;;;;;16.08;100.00;97807.97;1645894;86;26208;-87
2022/09/11 00:50:10;;;;;;;;;;;;;;;16.07;100.00;97798.87;1647895;86;24430;-88
2022/09/11 00:52:44;;;;;;;;;;;;;;;16.06;100.00;97804.64;1639185;86;20508;-88
2022/09/11 00:55:13;;;;;;;;;;;;;;;16.06;100.00;97797.21;1647679;86;38942;-87
2022/09/11 00:57:44;;;;;;;;;;;;;;;16.05;100.00;97802.16;1640554;86;22038;-89
2022/09/11 01:00:12;;;;;;;;;;;;;;;16.05;100.00;97801.66;1656509;86;26049;-89
2022/09/11 01:02:41;;;;;;;;;;;;;;;16.06;100.00;97806.45;1640697;86;24453;-89
2022/09/11 01:05:08;;;;;;;;;;;;;;;16.06;100.00;97805.97;1635193;86;20257;-89
2022/09/11 01:07:35;;;;;;;;;;;;;;;16.07;100.00;97808.11;1646521;86;24745;-88
2022/09/11 01:10:09;;;;;;;;;;;;;;;16.08;100.00;97807.13;1645107;86;22008;-89
2022/09/11 01:12:46;;;;;;;;;;;;;;;16.09;100.00;97801.67;1638413;86;26089;-89
2022/09/11 01:15:23;;;;;;;;;;;;;;;16.10;100.00;97807.78;1643120;86;24704;-89
2022/09/11 01:17:53;;;;;;;;;;;;;;;16.11;100.00;97800.20;1646480;86;20221;-89
2022/09/11 01:20:28;;;;;;;;;;;;;;;16.11;100.00;97803.68;1639784;86;25571;-89
2022/09/11 01:23:16;;;;;;;;;;;;;;;16.11;100.00;97798.40;1644458;86;21999;-89
2022/09/11 01:26:01;;;;;;;;;;;;;;;16.11;100.00;97802.36;1638383;86;25958;-89
2022/09/11 01:28:30;;;;;;;;;;;;;;;16.12;100.00;97795.27;1639788;86;24528;-89
2022/09/11 01:31:00;;;;;;;;;;;;;;;16.12;100.00;97789.99;1635630;86;20181;-89
2022/09/11 01:33:27;;;;;;;;;;;;;;;16.13;100.00;97792.48;1655330;85;24842;-88
2022/09/11 01:36:04;;;;;;;;;;;;;;;16.13;100.00;97786.38;1662338;85;22053;-89
2022/09/11 01:38:38;;;;;;;;;;;;;;;16.15;100.00;97789.17;1641972;86;26264;-88
2022/09/11 01:41:08;;;;;;;;;;;;;;;16.16;100.00;97791.32;1653249;85;24441;-89
2022/09/11 01:43:45;;;;;;;;;;;;;;;16.14;100.00;97787.55;1658000;85;20293;-89
2022/09/11 01:46:27;;;;;;;;;;;;;;;16.16;100.00;97792.16;1609024;87;24919;-88
2022/09/11 01:49:05;;;;;;;;;;;;;;;16.18;100.00;97790.19;1665899;85;21987;-89
2022/09/11 01:51:33;;;;;;;;;;;;;;;16.18;100.00;97788.88;1662409;85;26007;-89
2022/09/11 01:54:01;;;;;;;;;;;;;;;16.18;100.00;97787.55;1651564;85;24536;-88
2022/09/11 01:56:33;;;;;;;;;;;;;;;16.18;100.00;97782.77;1667332;85;20221;-88
2022/09/11 01:59:00;;;;;;;;;;;;;;;16.16;100.00;97782.91;1663568;86;24800;-88
2022/09/11 02:01:28;;;;;;;;;;;;;;;16.16;100.00;97784.72;1660054;85;22000;-89
2022/09/11 02:04:09;;;;;;;;;;;;;;;16.15;100.00;97784.38;1661186;85;26037;-89
2022/09/11 02:06:37;;;;;;;;;;;;;;;16.15;100.00;97783.06;1665063;84;24683;-89
2022/09/11 02:09:05;;;;;;;;;;;;;;;16.16;100.00;97783.41;1663868;86;20233;-89
2022/09/11 02:11:39;;;;;;;;;;;;;;;16.16;100.00;97786.04;1652277;85;24823;-89
2022/09/11 02:14:19;;;;;;;;;;;;;;;16.14;100.00;97787.55;1661224;86;22217;-90
2022/09/11 02:16:52;;;;;;;;;;;;;;;16.14;100.00;97779.62;1626959;87;26140;-90
2022/09/11 02:19:27;;;;;;;;;;;;;;;16.14;100.00;97784.91;1666487;85;24474;-89
2022/09/11 02:22:01;;;;;;;;;;;;;;;16.12;100.00;97785.54;1645658;86;20246;-89
2022/09/11 02:24:38;;;;;;;;;;;;;;;16.12;100.00;97786.86;1640787;86;24739;-88
2022/09/11 02:27:05;;;;;;;;;;;;;;;16.11;100.00;97789.65;1636319;86;22055;-89
2022/09/11 02:29:32;;;;;;;;;;;;;;;16.10;100.00;97775.62;1646493;85;26228;-89
2022/09/11 02:32:00;;;;;;;;;;;;;;;16.09;100.00;97779.23;1617204;86;24542;-89
2022/09/11 02:34:30;;;;;;;;;;;;;;;16.07;100.00;97779.08;1664520;85;20263;-89
2022/09/11 02:40:09;;;;;;;;;;;;;;;16.07;100.00;97774.63;1627134;86;20254;-89
2022/09/11 02:42:55;;;;;;;;;;;;;;;16.07;100.00;97774.63;1675286;83;26084;-89
2022/09/11 02:45:42;;;;;;;;;;;;;;;16.06;100.00;97769.50;1677575;83;24449;-89
2022/09/11 02:48:27;;;;;;;;;;;;;;;16.04;100.00;97768.33;1667981;84;20235;-87
2022/09/11 02:51:01;;;;;;;;;;;;;;;16.03;100.00;97775.11;1679958;83;24839;-87
2022/09/11 02:53:32;;;;;;;;;;;;;;;16.03;100.00;97771.15;1684802;83;22103;-87
2022/09/11 02:56:16;;;;;;;;;;;;;;;16.03;100.00;97772.47;1688466;83;26031;-87
2022/09/11 02:58:46;;;;;;;;;;;;;;;16.03;100.00;97769.83;1684067;83;24479;-87
2022/09/11 03:01:12;;;;;;;;;;;;;;;16.01;100.00;97769.97;1686923;84;20343;-87
2022/09/11 03:03:39;;;;;;;;;;;;;;;16.01;100.00;97773.94;1681166;83;20241;-87
2022/09/11 03:06:05;;;;;;;;;;;;;;;16.04;100.00;97775.45;1686043;83;22784;-87
2022/09/11 03:08:36;;;;;;;;;;;;;;;16.03;100.00;97771.98;1676776;84;26145;-87
2022/09/11 03:11:04;;;;;;;;;;;;;;;16.02;100.00;97773.45;1665129;84;20413;-87
2022/09/11 03:13:30;;;;;;;;;;;;;;;16.02;100.00;97782.20;1688373;83;20831;-87
2022/09/11 03:15:59;;;;;;;;;;;;;;;15.98;100.00;97771.62;1687670;84;25701;-87
2022/09/11 03:18:24;;;;;;;;;;;;;;;15.96;100.00;97774.91;1680654;84;21955;-87
2022/09/11 03:20:52;;;;;;;;;;;;;;;15.93;100.00;97773.88;1683240;83;21048;-87
2022/09/11 03:23:19;;;;;;;;;;;;;;;15.90;100.00;97776.35;1687952;83;24872;-90
2022/09/11 03:25:46;;;;;;;;;;;;;;;15.89;100.00;97771.22;1689788;83;20547;-87
2022/09/11 03:28:12;;;;;;;;;;;;;;;15.81;100.00;97765.42;1681132;84;24838;-87
2022/09/11 03:30:40;;;;;;;;;;;;;;;15.82;100.00;97770.19;1685307;83;20231;-87
2022/09/11 03:33:09;;;;;;;;;;;;;;;15.81;100.00;97765.42;1692196;83;26790;-86
2022/09/11 03:35:35;;;;;;;;;;;;;;;15.80;100.00;97762.94;1676544;83;24494;-87
2022/09/11 03:38:01;;;;;;;;;;;;;;;15.80;100.00;97764.25;1683491;83;20853;-89
2022/09/11 03:40:27;;;;;;;;;;;;;;;15.78;100.00;97762.25;1685661;83;20355;-87
2022/09/11 03:42:52;;;;;;;;;;;;;;;15.77;100.00;97765.87;1687108;83;22103;-87
2022/09/11 03:45:27;;;;;;;;;;;;;;;15.74;100.00;97760.42;1682418;84;21019;-87
2022/09/11 03:47:53;;;;;;;;;;;;;;;15.75;100.00;97766.53;1688010;83;24536;-87
2022/09/11 03:50:22;;;;;;;;;;;;;;;15.76;100.00;97762.92;1688556;84;20855;-88
2022/09/11 03:52:52;;;;;;;;;;;;;;;15.76;100.00;97759.79;1683567;83;24751;-88
2022/09/11 03:55:18;;;;;;;;;;;;;;;15.79;100.00;97759.95;1679073;84;206723;-88
2022/09/11 03:57:52;;;;;;;;;;;;;;;15.80;100.00;97759.80;1680721;83;20908;-88
2022/09/11 04:00:18;;;;;;;;;;;;;;;15.84;100.00;97758.99;1689033;83;164928;-88
2022/09/11 04:02:45;;;;;;;;;;;;;;;15.83;100.00;97758.16;1681360;83;20243;-88
2022/09/11 04:05:14;;;;;;;;;;;;;;;15.85;100.00;97761.48;1680464;83;20851;-88
2022/09/11 04:07:41;;;;;;;;;;;;;;;15.85;100.00;97748.78;1683865;83;22915;-88
2022/09/11 04:10:07;;;;;;;;;;;;;;;15.85;100.00;97748.29;1680463;84;26056;-88
2022/09/11 04:12:34;;;;;;;;;;;;;;;15.83;100.00;97753.37;1680291;83;25401;-87
2022/09/11 04:15:01;;;;;;;;;;;;;;;15.83;100.00;97752.88;1688121;83;20490;-87
2022/09/11 04:17:33;;;;;;;;;;;;;;;15.82;100.00;97751.71;1638557;86;24846;-88
2022/09/11 04:20:06;;;;;;;;;;;;;;;15.81;100.00;97756.68;1638520;86;22161;-87
2022/09/11 04:22:31;;;;;;;;;;;;;;;15.79;100.00;97755.51;1650177;85;26082;-87
2022/09/11 04:24:59;;;;;;;;;;;;;;;15.77;100.00;97760.10;1661748;85;20351;-88
2022/09/11 04:27:27;;;;;;;;;;;;;;;15.75;100.00;97757.30;1661189;85;20353;-87
2022/09/11 04:29:52;;;;;;;;;;;;;;;15.74;100.00;97750.36;1635629;86;24852;-89
2022/09/11 04:32:18;;;;;;;;;;;;;;;15.73;100.00;97757.45;1643486;86;20227;-88
2022/09/11 04:34:52;;;;;;;;;;;;;;;15.71;100.00;97752.01;1684033;83;26180;-88
2022/09/11 04:37:19;;;;;;;;;;;;;;;15.72;100.00;97761.55;1678903;83;24537;-88
2022/09/11 04:39:47;;;;;;;;;;;;;;;15.73;100.00;97757.94;1678629;84;20467;-88
2022/09/11 04:42:13;;;;;;;;;;;;;;;15.74;100.00;97760.91;1679226;84;24823;-89
2022/09/11 04:44:39;;;;;;;;;;;;;;;15.74;100.00;97755.15;1684281;83;21948;-88
2022/09/11 04:47:05;;;;;;;;;;;;;;;15.76;100.00;97762.92;1666405;84;21221;-88
2022/09/11 04:49:34;;;;;;;;;;;;;;;15.75;100.00;97761.26;1687790;83;20363;-88
2022/09/11 04:52:04;;;;;;;;;;;;;;;15.76;100.00;97755.84;1684655;83;20219;-88
2022/09/11 04:54:35;;;;;;;;;;;;;;;15.77;100.00;97753.99;1686165;83;24980;-88
2022/09/11 04:57:03;;;;;;;;;;;;;;;15.78;100.00;97759.13;1671947;83;22090;-88
2022/09/11 04:59:30;;;;;;;;;;;;;;;15.79;100.00;97759.95;1678057;84;26237;-88
2022/09/11 05:01:56;;;;;;;;;;;;;;;15.83;100.00;97762.61;1676578;83;24495;-88
2022/09/11 05:04:35;;;;;;;;;;;;;;;15.83;100.00;97762.61;1668762;84;20283;-87
2022/09/11 05:07:01;;;;;;;;;;;;;;;15.81;100.00;97760.64;1684899;83;24773;-88
2022/09/11 05:09:27;;;;;;;;;;;;;;;15.84;100.00;97756.35;1680060;84;22052;-88
2022/09/11 05:11:56;;;;;;;;;;;;;;;15.84;100.00;97755.03;1668127;83;26097;-88
2022/09/11 05:14:22;;;;;;;;;;;;;;;15.85;100.00;97761.48;1686048;83;24400;-87
2022/09/11 05:16:53;;;;;;;;;;;;;;;15.86;100.00;97759.19;1683950;84;20263;-87
2022/09/11 05:19:21;;;;;;;;;;;;;;;15.88;100.00;97766.44;1675381;83;24821;-88
2022/09/11 05:21:48;;;;;;;;;;;;;;;15.90;100.00;97763.65;1667657;84;21983;-88
2022/09/11 05:24:14;;;;;;;;;;;;;;;15.93;100.00;97761.20;1684568;83;21033;-87
2022/09/11 05:26:49;;;;;;;;;;;;;;;15.96;100.00;97766.98;1665502;84;24642;-88
2022/09/11 05:29:18;;;;;;;;;;;;;;;15.98;100.00;97768.16;1670614;83;20490;-88
2022/09/11 05:31:58;;;;;;;;;;;;;;;15.99;100.00;97769.30;1683312;84;25047;-88
2022/09/11 05:34:27;;;;;;;;;;;;;;;15.99;100.00;97775.89;1685416;84;21979;-88
2022/09/11 05:36:56;;;;;;;;;;;;;;;16.01;100.00;97777.89;1678735;83;26202;-88
2022/09/11 05:39:27;;;;;;;;;;;;;;;16.00;100.00;97773.59;1683934;85;24527;-88
2022/09/11 05:41:59;;;;;;;;;;;;;;;15.98;100.00;97775.58;1686226;84;20305;-89
2022/09/11 05:44:33;;;;;;;;;;;;;;;15.98;100.00;97775.58;1665925;84;24741;-88
2022/09/11 05:46:57;;;;;;;;;;;;;;;15.98;100.00;97775.58;1690886;84;22194;-88
2022/09/11 05:49:29;;;;;;;;;;;;;;;16.01;100.00;97784.49;1692016;83;26167;-89
2022/09/11 05:52:03;;;;;;;;;;;;;;;16.00;100.00;97788.11;1691616;83;24503;-89
2022/09/11 05:54:29;;;;;;;;;;;;;;;16.02;100.00;97780.88;1691111;83;20330;-88
2022/09/11 05:56:55;;;;;;;;;;;;;;;16.08;100.00;97781.57;1692539;83;20211;-88
2022/09/11 05:59:21;;;;;;;;;;;;;;;16.12;100.00;97788.18;1692323;83;20869;-88
2022/09/11 06:01:49;;;;;;;;;;;;;;;16.09;100.00;97783.20;1692458;84;26112;-88
2022/09/11 06:04:18;;;;;;;;;;;;;;;16.09;100.00;97787.16;1692092;83;24515;-88
2022/09/11 06:06:50;;;;;;;;;;;;;;;16.08;100.00;97784.70;1693557;84;20519;-88
2022/09/11 06:09:16;;;;;;;;;;;;;;;16.08;100.00;97782.89;1691759;84;24856;-88
2022/09/11 06:11:57;;;;;;;;;;;;;;;16.08;100.00;97788.17;1693340;84;20793;-88
2022/09/11 06:14:34;;;;;;;;;;;;;;;16.09;100.00;97785.04;1692756;84;26137;-88
2022/09/11 06:17:04;;;;;;;;;;;;;;;16.11;100.00;97787.84;1693417;84;23845;-88
2022/09/11 06:19:30;;;;;;;;;;;;;;;16.13;100.00;97794.29;1692812;83;20455;-87
2022/09/11 06:21:56;;;;;;;;;;;;;;;16.15;100.00;97797.58;1692055;84;25554;-88
2022/09/11 06:24:22;;;;;;;;;;;;;;;16.16;100.00;97798.75;1692291;84;20821;-89
2022/09/11 06:26:48;;;;;;;;;;;;;;;16.18;100.00;97798.60;1692365;84;25998;-87
2022/09/11 06:29:17;;;;;;;;;;;;;;;16.17;100.00;97804.86;1692149;84;24502;-88
2022/09/11 06:31:43;;;;;;;;;;;;;;;16.16;100.00;97805.84;1692052;84;20334;-88
2022/09/11 06:34:09;;;;;;;;;;;;;;;16.19;100.00;97802.41;1693184;84;20270;-87
2022/09/11 06:36:35;;;;;;;;;;;;;;;16.21;100.00;97809.66;1692816;83;20811;-87
2022/09/11 06:39:01;;;;;;;;;;;;;;;16.21;100.00;97806.20;1682844;84;20974;-87
2022/09/11 06:41:28;;;;;;;;;;;;;;;16.23;100.00;97807.70;1686895;84;25768;-87
2022/09/11 06:43:54;;;;;;;;;;;;;;;16.23;100.00;97803.75;1671003;84;20507;-87
2022/09/11 06:46:21;;;;;;;;;;;;;;;16.23;100.00;97809.03;1679081;83;24175;-87
2022/09/11 06:48:49;;;;;;;;;;;;;;;16.22;100.00;97810.50;1680570;84;22121;-87
2022/09/11 06:51:16;;;;;;;;;;;;;;;16.19;100.00;97809.50;1689221;83;26169;-87
2022/09/11 06:53:43;;;;;;;;;;;;;;;16.18;100.00;97810.00;1689162;82;24494;-87
2022/09/11 06:56:15;;;;;;;;;;;;;;;16.16;100.00;97808.48;1688110;83;20247;-88
2022/09/11 06:58:45;;;;;;;;;;;;;;;16.18;100.00;97806.52;1685830;83;24773;-87
2022/09/11 07:01:13;;;;;;;;;;;;;;;16.22;100.00;97805.22;1686035;83;22105;-86
2022/09/11 07:03:46;;;;;;;;;;;;;;;16.27;100.00;97809.53;1688371;83;26286;-87
2022/09/11 07:06:12;;;;;;;;;;;;;;;16.30;100.00;97808.74;1687680;84;25401;-87
2022/09/11 07:08:38;;;;;;;;;;;;;;;16.37;100.00;97817.32;1686918;83;20156;-87
2022/09/11 07:11:05;;;;;;;;;;;;;;;16.40;100.00;97815.70;1670423;84;20399;-87
2022/09/11 07:13:31;;;;;;;;;;;;;;;16.46;100.00;97812.43;1690439;83;22149;-88
2022/09/11 07:16:01;;;;;;;;;;;;;;;16.52;100.00;97807.34;1690625;83;26052;-87
2022/09/11 07:18:35;;;;;;;;;;;;;;;16.61;100.00;97813.50;1677942;83;24564;-87
2022/09/11 07:21:07;;;;;;;;;;;;;;;16.69;100.00;97813.55;1681611;83;20183;-87
2022/09/11 07:23:34;;;;;;;;;;;;;;;16.68;100.00;97813.20;1683001;83;24852;-87
2022/09/11 07:26:05;;;;;;;;;;;;;;;16.69;100.00;97814.34;1687764;83;22148;-87
2022/09/11 07:28:30;;;;;;;;;;;;;;;16.70;100.00;97802.80;1679948;83;26031;-87
2022/09/11 07:30:59;;;;;;;;;;;;;;;16.73;100.00;97805.63;1683282;83;20817;-88
2022/09/11 07:33:26;;;;;;;;;;;;;;;16.78;100.00;97807.28;1681452;83;20310;-88
2022/09/11 07:35:52;;;;;;;;;;;;;;;16.86;100.00;97808.61;1680896;83;180124;-88
2022/09/11 07:38:18;;;;;;;;;;;;;;;16.97;100.00;97804.34;1672002;84;227728;-87
2022/09/11 07:40:52;;;;;;;;;;;;;;;17.08;100.00;97809.32;1663348;85;21161;-89
2022/09/11 07:43:18;;;;;;;;;;;;;;;17.11;100.00;97810.33;1662577;85;24436;-88
2022/09/11 07:45:44;;;;;;;;;;;;;;;17.13;100.00;97810.98;1660472;85;20308;-88
2022/09/11 07:48:10;;;;;;;;;;;;;;;17.14;100.00;97804.70;1660466;85;20758;-88
2022/09/11 07:50:36;;;;;;;;;;;;;;;17.16;100.00;97805.87;1664899;85;20256;-87
2022/09/11 07:53:02;;;;;;;;;;;;;;;17.13;100.00;97805.69;1663537;84;21145;-87
2022/09/11 07:55:39;;;;;;;;;;;;;;;17.12;100.00;97804.55;1666312;84;24786;-89
2022/09/11 07:58:11;;;;;;;;;;;;;;;17.08;100.00;97797.91;1659647;85;20455;-88
2022/09/11 08:00:42;;;;;;;;;;;;;;;17.05;100.00;97807.50;1663861;85;24839;-88
2022/09/11 08:03:13;;;;;;;;;;;;;;;17.02;100.00;97809.16;1659635;84;20133;-87
2022/09/11 08:05:40;;;;;;;;;;;;;;;16.97;100.00;97806.98;1663717;85;27037;-87
2022/09/11 08:08:06;;;;;;;;;;;;;;;16.97;100.00;97816.23;1660095;85;24490;-87
2022/09/11 08:10:34;;;;;;;;;;;;;;;16.99;100.00;97812.12;1663062;85;20886;-87
2022/09/11 08:13:00;;;;;;;;;;;;;;;16.98;100.00;97811.78;1660509;85;24847;-88
2022/09/11 08:15:26;;;;;;;;;;;;;;;16.99;100.00;97810.80;1670978;85;22086;-87
2022/09/11 08:17:53;;;;;;;;;;;;;;;17.03;100.00;97812.95;1665413;85;21810;-87
2022/09/11 08:20:22;;;;;;;;;;;;;;;17.10;100.00;97809.16;1665310;85;24604;-87
2022/09/11 08:22:57;;;;;;;;;;;;;;;17.15;100.00;97815.62;1665718;85;20253;-87
2022/09/11 08:25:28;;;;;;;;;;;;;;;17.21;100.00;97813.30;1655571;85;24989;-88
2022/09/11 08:27:56;;;;;;;;;;;;;;;17.24;100.00;97815.12;1658507;85;22812;-87
2022/09/11 08:30:26;;;;;;;;;;;;;;;17.24;100.00;97816.44;1640130;85;23000;-87
2022/09/11 08:32:58;;;;;;;;;;;;;;;17.23;100.00;97818.78;1665178;85;24530;-87
2022/09/11 08:35:25;;;;;;;;;;;;;;;17.21;100.00;97816.78;1659657;85;20182;-88
2022/09/11 08:37:53;;;;;;;;;;;;;;;17.14;100.00;97822.38;1664225;85;24867;-88
2022/09/11 08:40:20;;;;;;;;;;;;;;;17.04;100.00;97821.70;1672885;85;22063;-89
2022/09/11 08:42:52;;;;;;;;;;;;;;;17.00;100.00;97826.50;1675557;83;26129;-89
2022/09/11 08:45:19;;;;;;;;;;;;;;;16.97;100.00;97824.66;1686382;83;24618;-88
2022/09/11 08:47:47;;;;;;;;;;;;;;;16.97;100.00;97830.77;1681621;83;20191;-88
2022/09/11 08:50:22;;;;;;;;;;;;;;;17.00;100.00;97830.96;1688292;83;24816;-87
2022/09/11 08:52:53;;;;;;;;;;;;;;;17.08;100.00;97833.61;1684351;83;22003;-88
2022/09/11 08:55:33;;;;;;;;;;;;;;;17.15;100.00;97832.80;1685602;83;26157;-87
2022/09/11 08:58:01;;;;;;;;;;;;;;;17.20;100.00;97826.19;1683247;83;24440;-86
2022/09/11 09:00:29;;;;;;;;;;;;;;;17.27;100.00;97833.32;1685924;83;20253;-87
2022/09/11 09:03:19;;;;;;;;;;;;;;;17.36;100.00;97834.97;1683860;84;24924;-87
2022/09/11 09:05:58;;;;;;;;;;;;;;;17.41;100.00;97836.63;1672604;83;22761;-87
2022/09/11 09:08:36;;;;;;;;;;;;;;;17.47;100.00;97837.30;1681271;83;26109;-89
2022/09/11 09:11:21;;;;;;;;;;;;;;;17.54;100.00;97827.72;1684860;83;24605;-88
2022/09/11 09:13:52;;;;;;;;;;;;;;;17.64;100.00;97830.71;1675063;83;20316;-87
2022/09/11 09:16:20;;;;;;;;;;;;;;;17.73;100.00;97833.70;1677897;83;25548;-87
2022/09/11 09:18:47;;;;;;;;;;;;;;;17.81;100.00;97829.71;1673274;83;22064;-87
2022/09/11 09:21:15;;;;;;;;;;;;;;;17.86;100.00;97832.19;1686919;83;28556;-87
2022/09/11 09:23:47;;;;;;;;;;;;;;;17.87;100.00;97831.70;1691774;83;25317;-87
2022/09/11 09:26:21;;;;;;;;;;;;;;;17.88;100.00;97833.35;1697606;83;20564;-88
2022/09/11 09:28:49;;;;;;;;;;;;;;;17.93;100.00;97838.48;1678143;84;24730;-89
2022/09/11 09:31:17;;;;;;;;;;;;;;;17.96;100.00;97832.83;1688192;83;22004;-87
2022/09/11 09:33:58;;;;;;;;;;;;;;;18.00;100.00;97832.52;1686985;83;26133;-87
2022/09/11 09:36:33;;;;;;;;;;;;;;;17.96;100.00;97838.63;1660127;85;24566;-88
2022/09/11 09:39:02;;;;;;;;;;;;;;;17.87;100.00;97831.70;1685544;83;20251;-88
2022/09/11 09:44:36;;;;;;;;;;;;;;;17.66;100.00;97839.32;1681642;83;22310;-89
2022/09/11 09:47:03;;;;;;;;;;;;;;;17.64;100.00;97842.13;1687058;84;26109;-90
2022/09/11 09:49:32;;;;;;;;;;;;;;;17.63;100.00;97842.28;1692042;83;24523;-87
2022/09/11 09:52:01;;;;;;;;;;;;;;;17.69;100.00;97838.98;1697278;84;20317;-86
2022/09/11 09:54:28;;;;;;;;;;;;;;;17.77;100.00;97833.20;1686478;84;25605;-89
2022/09/11 09:57:02;;;;;;;;;;;;;;;17.86;100.00;97836.16;1686964;84;22793;-88
2022/09/11 09:59:35;;;;;;;;;;;;;;;17.91;100.00;97828.54;1679694;84;26017;-89
2022/09/11 10:02:05;;;;;;;;;;;;;;;18.00;100.00;97832.52;1684746;83;25378;-89
2022/09/11 10:04:31;;;;;;;;;;;;;;;18.08;100.00;97827.19;1685796;83;20425;-88
2022/09/11 10:07:10;;;;;;;;;;;;;;;18.17;100.00;97824.83;1651012;84;20231;-88
2022/09/11 10:09:38;;;;;;;;;;;;;;;18.24;100.00;97828.47;1641751;85;21491;-89
2022/09/11 10:12:14;;;;;;;;;;;;;;;18.26;100.00;97832.61;1637640;86;26064;-89
2022/09/11 10:14:45;;;;;;;;;;;;;;;18.27;100.00;97821.00;1678977;84;25294;-88
2022/09/11 10:17:24;;;;;;;;;;;;;;;18.24;100.00;97820.02;1635260;86;20294;-89
2022/09/11 10:19:54;;;;;;;;;;;;;;;18.27;100.00;97822.84;1679388;83;24988;-88
2022/09/11 10:22:45;;;;;;;;;;;;;;;18.34;100.00;97819.82;1689153;84;20205;-88
2022/09/11 10:25:14;;;;;;;;;;;;;;;18.45;100.00;97815.97;1690678;84;27068;-88
2022/09/11 10:27:42;;;;;;;;;;;;;;;18.55;100.00;97821.42;1691057;84;25342;-88
2022/09/11 10:30:17;;;;;;;;;;;;;;;18.60;100.00;97820.94;1651649;85;20432;-88
2022/09/11 10:32:43;;;;;;;;;;;;;;;18.68;100.00;97825.69;1684352;83;25321;-89
2022/09/11 10:35:12;;;;;;;;;;;;;;;18.77;100.00;97835.24;1688205;83;21484;-89
2022/09/11 10:37:39;;;;;;;;;;;;;;;18.75;100.00;97829.80;1691166;83;27070;-88
2022/09/11 10:40:07;;;;;;;;;;;;;;;18.86;100.00;97832.56;1686844;83;24671;-89
2022/09/11 10:42:44;;;;;;;;;;;;;;;18.96;100.00;97826.55;1683179;84;20328;-89
2022/09/11 10:45:15;;;;;;;;;;;;;;;19.02;100.00;97825.34;1693171;83;25003;-89
2022/09/11 10:47:47;;;;;;;;;;;;;;;19.06;100.00;97828.47;1690185;83;22067;-89
2022/09/11 10:50:19;;;;;;;;;;;;;;;19.05;100.00;97822.83;1695155;83;25437;-88
2022/09/11 10:52:49;;;;;;;;;;;;;;;18.98;100.00;97824.55;1654315;86;24442;-88
2022/09/11 10:55:16;;;;;;;;;;;;;;;18.95;100.00;97828.86;1670901;85;20318;-88
2022/09/11 10:57:54;;;;;;;;;;;;;;;18.98;100.00;97829.86;1669791;85;25669;-88
2022/09/11 11:00:24;;;;;;;;;;;;;;;19.05;100.00;97829.46;1670520;85;22052;-88
2022/09/11 11:03:08;;;;;;;;;;;;;;;19.09;100.00;97826.28;1671035;85;26220;-88
2022/09/11 11:05:51;;;;;;;;;;;;;;;19.15;100.00;97825.58;1670284;85;24616;-89
2022/09/11 11:08:20;;;;;;;;;;;;;;;19.20;100.00;97827.20;1657798;85;20258;-88
2022/09/11 11:10:49;;;;;;;;;;;;;;;19.23;100.00;97830.84;1654057;85;24819;-88
2022/09/11 11:13:34;;;;;;;;;;;;;;;19.27;100.00;97823.84;1657332;85;20152;-89
2022/09/11 11:16:15;;;;;;;;;;;;;;;19.31;100.00;97823.31;1666879;85;26189;-88
2022/09/11 11:18:50;;;;;;;;;;;;;;;19.28;100.00;97826.83;1666663;85;24632;-88
2022/09/11 11:21:22;;;;;;;;;;;;;;;19.28;100.00;97818.38;1671162;85;20249;-89
2022/09/11 11:23:56;;;;;;;;;;;;;;;19.29;100.00;97821.85;1680349;84;24861;-88
2022/09/11 11:26:32;;;;;;;;;;;;;;;19.34;100.00;97831.44;1679610;84;22164;-88
2022/09/11 11:29:00;;;;;;;;;;;;;;;19.37;100.00;97835.05;1705720;83;26269;-88
2022/09/11 11:31:46;;;;;;;;;;;;;;;19.37;100.00;97829.24;1664016;85;24430;-88
2022/09/11 11:34:13;;;;;;;;;;;;;;;19.38;100.00;97827.42;1699776;83;20284;-89
2022/09/11 11:36:41;;;;;;;;;;;;;;;19.32;100.00;97828.95;1680382;84;24764;-88
2022/09/11 11:39:21;;;;;;;;;;;;;;;19.22;100.00;97825.21;1681300;84;22066;-88
2022/09/11 11:42:04;;;;;;;;;;;;;;;19.23;100.00;97828.20;1677030;84;26086;-88
2022/09/11 11:44:33;;;;;;;;;;;;;;;19.27;100.00;97828.66;1696278;83;24654;-87
2022/09/11 11:47:00;;;;;;;;;;;;;;;19.30;100.00;97823.52;1666228;83;20298;-88
2022/09/11 11:49:31;;;;;;;;;;;;;;;19.31;100.00;97825.97;1667163;85;24583;-88
2022/09/11 11:51:59;;;;;;;;;;;;;;;19.29;100.00;97827.98;1663449;84;22064;-88
2022/09/11 11:54:37;;;;;;;;;;;;;;;19.20;100.00;97829.06;1663525;84;26072;-89
2022/09/11 11:57:15;;;;;;;;;;;;;;;19.17;100.00;97834.20;1701781;83;25332;-88
2022/09/11 11:59:51;;;;;;;;;;;;;;;19.13;100.00;97831.58;1660897;85;20137;-88
2022/09/11 12:02:19;;;;;;;;;;;;;;;19.02;100.00;97838.61;1702987;83;24883;-88
2022/09/11 12:04:53;;;;;;;;;;;;;;;18.96;100.00;97837.15;1667163;84;21836;-87
2022/09/11 12:07:23;;;;;;;;;;;;;;;18.89;100.00;97840.98;1664486;85;26098;-87
2022/09/11 12:09:51;;;;;;;;;;;;;;;18.84;100.00;97834.55;1677971;84;24411;-87
2022/09/11 12:12:22;;;;;;;;;;;;;;;18.87;100.00;97832.41;1677479;84;20297;-87
2022/09/11 12:14:51;;;;;;;;;;;;;;;18.94;100.00;97829.36;1608945;84;20262;-87
2022/09/11 12:17:24;;;;;;;;;;;;;;;18.99;100.00;97826.18;1704093;83;22105;-87
2022/09/11 12:20:10;;;;;;;;;;;;;;;19.08;100.00;97829.13;1699753;83;26212;-87
2022/09/11 12:22:48;;;;;;;;;;;;;;;19.18;100.00;97832.38;1692720;83;24630;-88
2022/09/11 12:25:26;;;;;;;;;;;;;;;19.21;100.00;97828.03;1690626;83;20372;-87
2022/09/11 12:28:13;;;;;;;;;;;;;;;19.18;100.00;97823.92;1695630;83;24682;-87
2022/09/11 12:30:57;;;;;;;;;;;;;;;19.19;100.00;97829.55;1694218;83;21981;-87
2022/09/11 12:33:46;;;;;;;;;;;;;;;19.28;100.00;97829.48;1688001;83;26951;-87
2022/09/11 12:36:15;;;;;;;;;;;;;;;19.33;100.00;97825.30;1692740;83;24657;-87
2022/09/11 12:38:46;;;;;;;;;;;;;;;19.41;100.00;97827.91;1696281;83;20355;-87
2022/09/11 12:41:16;;;;;;;;;;;;;;;19.45;100.00;97830.55;1694050;83;25630;-87
2022/09/11 12:43:44;;;;;;;;;;;;;;;19.43;100.00;97830.36;1693596;84;23093;-87
2022/09/11 12:46:21;;;;;;;;;;;;;;;19.42;100.00;97832.19;1690309;83;26036;-87
2022/09/11 12:48:57;;;;;;;;;;;;;;;19.39;100.00;97833.88;1696772;83;24503;-88
2022/09/11 12:51:31;;;;;;;;;;;;;;;19.40;100.00;97836.03;1698011;83;20281;-87
2022/09/11 12:54:03;;;;;;;;;;;;;;;19.37;100.00;97829.24;1690612;83;24933;-87
2022/09/11 12:56:31;;;;;;;;;;;;;;;19.45;100.00;97827.08;1698743;83;22190;-87
2022/09/11 12:58:59;;;;;;;;;;;;;;;19.47;100.00;97827.73;1696762;83;26921;-87